sensor_id;sensor_type;location;lat;lon;timestamp;pressure;altitude;pressure_sealevel;temperature;humidity
17311;BME280;8773;43.300;0.394;2023-09-30T00:02:26;100554.41;;;19.10;79.94
17311;BME280;8773;43.300;0.394;2023-09-30T00:05:03;100547.31;;;19.09;80.24
17311;BME280;8773;43.300;0.394;2023-09-30T00:07:30;100546.34;;;19.31;78.79
17311;BME280;8773;43.300;0.394;2023-09-30T00:09:58;100541.25;;;19.43;78.35
17311;BME280;8773;43.300;0.394;2023-09-30T00:12:26;100543.38;;;19.47;78.09
17311;BME280;8773;43.300;0.394;2023-09-30T00:14:54;100542.34;;;19.48;77.96
17311;BME280;8773;43.300;0.394;2023-09-30T00:17:22;100541.31;;;19.49;77.68
17311;BME280;8773;43.300;0.394;2023-09-30T00:19:49;100533.63;;;19.53;77.47
17311;BME280;8773;43.300;0.394;2023-09-30T00:22:16;100539.69;;;19.55;77.33
17311;BME280;8773;43.300;0.394;2023-09-30T00:24:44;100535.38;;;19.60;76.79
17311;BME280;8773;43.300;0.394;2023-09-30T00:27:11;100534.34;;;19.61;76.40
17311;BME280;8773;43.300;0.394;2023-09-30T00:29:40;100533.63;;;19.53;76.81
17311;BME280;8773;43.300;0.394;2023-09-30T00:32:07;100536.59;;;19.58;76.46
17311;BME280;8773;43.300;0.394;2023-09-30T00:34:35;100524.84;;;19.51;76.63
17311;BME280;8773;43.300;0.394;2023-09-30T00:37:02;100523.88;;;19.37;77.21
17311;BME280;8773;43.300;0.394;2023-09-30T00:39:29;100525.56;;;19.38;77.54
17311;BME280;8773;43.300;0.394;2023-09-30T00:41:57;100526.38;;;19.32;77.52
17311;BME280;8773;43.300;0.394;2023-09-30T00:44:24;100526.72;;;19.29;77.77
17311;BME280;8773;43.300;0.394;2023-09-30T00:46:53;100516.66;;;19.23;77.73
17311;BME280;8773;43.300;0.394;2023-09-30T00:49:23;100524.97;;;19.21;77.54
17311;BME280;8773;43.300;0.394;2023-09-30T00:51:51;100524.00;;;19.08;78.42
17311;BME280;8773;43.300;0.394;2023-09-30T00:54:20;100523.47;;;18.97;78.58
17311;BME280;8773;43.300;0.394;2023-09-30T00:56:50;100527.13;;;18.90;79.04
17311;BME280;8773;43.300;0.394;2023-09-30T00:59:18;100527.56;;;18.93;78.85
17311;BME280;8773;43.300;0.394;2023-09-30T01:01:46;100534.00;;;18.92;78.98
17311;BME280;8773;43.300;0.394;2023-09-30T01:04:15;100532.75;;;19.10;77.71
17311;BME280;8773;43.300;0.394;2023-09-30T01:06:43;100525.66;;;19.09;77.39
17311;BME280;8773;43.300;0.394;2023-09-30T01:09:10;100528.00;;;19.12;77.22
17311;BME280;8773;43.300;0.394;2023-09-30T01:11:40;100524.25;;;19.13;77.48
17311;BME280;8773;43.300;0.394;2023-09-30T01:14:24;100521.81;;;19.18;77.31
17311;BME280;8773;43.300;0.394;2023-09-30T01:16:51;100516.06;;;19.06;77.33
17311;BME280;8773;43.300;0.394;2023-09-30T01:19:20;100519.88;;;19.12;76.86
17311;BME280;8773;43.300;0.394;2023-09-30T01:21:48;100519.34;;;19.01;77.56
17311;BME280;8773;43.300;0.394;2023-09-30T01:24:16;100525.66;;;19.09;77.06
17311;BME280;8773;43.300;0.394;2023-09-30T01:26:43;100514.91;;;19.15;76.46
17311;BME280;8773;43.300;0.394;2023-09-30T01:29:11;100511.97;;;18.95;77.41
17311;BME280;8773;43.300;0.394;2023-09-30T01:31:38;100507.47;;;18.81;78.07
17311;BME280;8773;43.300;0.394;2023-09-30T01:34:05;100502.84;;;18.60;78.84
17311;BME280;8773;43.300;0.394;2023-09-30T01:36:33;100514.78;;;18.66;78.55
17311;BME280;8773;43.300;0.394;2023-09-30T01:39:01;100508.06;;;18.62;78.58
17311;BME280;8773;43.300;0.394;2023-09-30T01:41:29;100510.41;;;18.65;78.38
17311;BME280;8773;43.300;0.394;2023-09-30T01:43:56;100511.16;;;18.29;79.42
17311;BME280;8773;43.300;0.394;2023-09-30T01:46:24;100505.34;;;18.47;78.93
17311;BME280;8773;43.300;0.394;2023-09-30T01:48:51;100509.00;;;18.40;78.92
17311;BME280;8773;43.300;0.394;2023-09-30T01:51:19;100498.19;;;18.40;79.28
17311;BME280;8773;43.300;0.394;2023-09-30T01:53:46;100505.94;;;18.28;79.53
17311;BME280;8773;43.300;0.394;2023-09-30T01:56:15;100503.91;;;18.00;80.97
17311;BME280;8773;43.300;0.394;2023-09-30T01:58:42;100505.00;;;17.91;81.45
17311;BME280;8773;43.300;0.394;2023-09-30T02:01:10;100500.53;;;17.98;81.60
17311;BME280;8773;43.300;0.394;2023-09-30T02:03:37;100497.53;;;18.08;80.83
17311;BME280;8773;43.300;0.394;2023-09-30T02:06:05;100497.47;;;18.31;79.81
17311;BME280;8773;43.300;0.394;2023-09-30T02:08:32;100504.34;;;18.04;80.69
17311;BME280;8773;43.300;0.394;2023-09-30T02:10:59;100507.31;;;18.09;80.79
17311;BME280;8773;43.300;0.394;2023-09-30T02:13:28;100502.03;;;18.30;79.89
17311;BME280;8773;43.300;0.394;2023-09-30T02:15:55;100507.53;;;18.22;79.66
17311;BME280;8773;43.300;0.394;2023-09-30T02:18:23;100496.91;;;18.21;79.90
17311;BME280;8773;43.300;0.394;2023-09-30T02:20:50;100497.91;;;18.20;79.99
17311;BME280;8773;43.300;0.394;2023-09-30T02:23:20;100500.72;;;17.97;80.74
17311;BME280;8773;43.300;0.394;2023-09-30T02:25:47;100499.97;;;18.18;79.95
17311;BME280;8773;43.300;0.394;2023-09-30T02:28:15;100494.28;;;18.27;79.49
17311;BME280;8773;43.300;0.394;2023-09-30T02:30:43;100492.44;;;18.28;79.64
17311;BME280;8773;43.300;0.394;2023-09-30T02:33:11;100486.66;;;18.31;79.24
17311;BME280;8773;43.300;0.394;2023-09-30T02:35:43;100494.66;;;18.24;79.32
17311;BME280;8773;43.300;0.394;2023-09-30T02:38:11;100492.88;;;18.17;79.66
17311;BME280;8773;43.300;0.394;2023-09-30T02:40:38;100497.81;;;18.13;79.61
17311;BME280;8773;43.300;0.394;2023-09-30T02:43:05;100506.84;;;18.06;80.10
17311;BME280;8773;43.300;0.394;2023-09-30T02:45:32;100510.03;;;17.94;80.18
17311;BME280;8773;43.300;0.394;2023-09-30T02:48:02;100510.81;;;17.65;81.54
17311;BME280;8773;43.300;0.394;2023-09-30T02:50:29;100522.72;;;17.94;80.77
17311;BME280;8773;43.300;0.394;2023-09-30T02:52:56;100520.19;;;18.07;80.40
17311;BME280;8773;43.300;0.394;2023-09-30T02:55:24;100535.09;;;18.03;80.65
17311;BME280;8773;43.300;0.394;2023-09-30T02:57:55;100535.56;;;18.07;80.89
17311;BME280;8773;43.300;0.394;2023-09-30T03:00:22;100545.28;;;18.30;79.51
17311;BME280;8773;43.300;0.394;2023-09-30T03:02:50;100535.69;;;18.43;79.09
17311;BME280;8773;43.300;0.394;2023-09-30T03:05:19;100530.28;;;18.57;77.90
17311;BME280;8773;43.300;0.394;2023-09-30T03:07:47;100517.84;;;18.63;77.45
17311;BME280;8773;43.300;0.394;2023-09-30T03:10:15;100517.69;;;18.50;78.13
17311;BME280;8773;43.300;0.394;2023-09-30T03:12:42;100522.06;;;18.51;77.20
17311;BME280;8773;43.300;0.394;2023-09-30T03:15:10;100518.03;;;18.47;77.17
17311;BME280;8773;43.300;0.394;2023-09-30T03:17:37;100521.78;;;18.46;76.63
17311;BME280;8773;43.300;0.394;2023-09-30T03:20:05;100516.75;;;18.43;77.05
17311;BME280;8773;43.300;0.394;2023-09-30T03:22:34;100510.78;;;18.32;77.46
17311;BME280;8773;43.300;0.394;2023-09-30T03:25:02;100528.88;;;18.32;77.31
17311;BME280;8773;43.300;0.394;2023-09-30T03:27:29;100526.25;;;18.39;76.63
17311;BME280;8773;43.300;0.394;2023-09-30T03:29:56;100522.72;;;18.38;76.57
17311;BME280;8773;43.300;0.394;2023-09-30T03:32:24;100518.53;;;18.35;76.52
17311;BME280;8773;43.300;0.394;2023-09-30T03:34:52;100531.00;;;17.92;78.18
17311;BME280;8773;43.300;0.394;2023-09-30T03:37:19;100522.41;;;17.89;78.43
17311;BME280;8773;43.300;0.394;2023-09-30T03:39:48;100519.22;;;17.70;79.24
17311;BME280;8773;43.300;0.394;2023-09-30T03:42:15;100519.34;;;17.54;80.06
17311;BME280;8773;43.300;0.394;2023-09-30T03:44:43;100510.34;;;17.62;79.86
17311;BME280;8773;43.300;0.394;2023-09-30T03:47:10;100517.06;;;17.43;80.42
17311;BME280;8773;43.300;0.394;2023-09-30T03:49:37;100517.56;;;17.24;81.50
17311;BME280;8773;43.300;0.394;2023-09-30T03:52:05;100517.38;;;17.02;82.42
17311;BME280;8773;43.300;0.394;2023-09-30T03:54:32;100516.66;;;17.09;82.21
17311;BME280;8773;43.300;0.394;2023-09-30T03:57:01;100510.66;;;17.44;80.41
17311;BME280;8773;43.300;0.394;2023-09-30T03:59:28;100518.38;;;17.47;80.51
17311;BME280;8773;43.300;0.394;2023-09-30T04:01:56;100525.16;;;17.66;79.21
17311;BME280;8773;43.300;0.394;2023-09-30T04:04:23;100533.25;;;17.66;79.39
17311;BME280;8773;43.300;0.394;2023-09-30T04:06:50;100528.56;;;17.83;78.48
17311;BME280;8773;43.300;0.394;2023-09-30T04:09:18;100531.56;;;17.88;78.31
17311;BME280;8773;43.300;0.394;2023-09-30T04:11:45;100519.88;;;17.73;78.85
17311;BME280;8773;43.300;0.394;2023-09-30T04:14:14;100524.75;;;17.54;79.58
17311;BME280;8773;43.300;0.394;2023-09-30T04:16:41;100521.13;;;17.62;79.05
17311;BME280;8773;43.300;0.394;2023-09-30T04:19:09;100528.03;;;17.64;78.84
17311;BME280;8773;43.300;0.394;2023-09-30T04:21:36;100520.59;;;17.66;78.43
17311;BME280;8773;43.300;0.394;2023-09-30T04:24:04;100511.19;;;17.62;78.44
17311;BME280;8773;43.300;0.394;2023-09-30T04:26:31;100508.91;;;17.51;78.73
17311;BME280;8773;43.300;0.394;2023-09-30T04:28:59;100513.28;;;17.29;79.69
17311;BME280;8773;43.300;0.394;2023-09-30T04:31:27;100509.03;;;17.35;79.58
17311;BME280;8773;43.300;0.394;2023-09-30T04:33:55;100521.25;;;17.23;80.29
17311;BME280;8773;43.300;0.394;2023-09-30T04:36:23;100523.88;;;16.85;82.14
17311;BME280;8773;43.300;0.394;2023-09-30T04:38:50;100523.56;;;17.11;80.58
17311;BME280;8773;43.300;0.394;2023-09-30T04:41:18;100523.63;;;17.03;80.93
17311;BME280;8773;43.300;0.394;2023-09-30T04:43:45;100512.41;;;17.14;80.52
17311;BME280;8773;43.300;0.394;2023-09-30T04:46:12;100515.66;;;17.10;81.09
17311;BME280;8773;43.300;0.394;2023-09-30T04:48:42;100509.63;;;17.22;80.66
17311;BME280;8773;43.300;0.394;2023-09-30T04:51:09;100508.19;;;17.34;79.88
17311;BME280;8773;43.300;0.394;2023-09-30T04:53:37;100513.34;;;17.44;79.66
17311;BME280;8773;43.300;0.394;2023-09-30T04:56:04;100507.84;;;17.37;79.42
17311;BME280;8773;43.300;0.394;2023-09-30T04:58:32;100516.53;;;17.25;79.78
17311;BME280;8773;43.300;0.394;2023-09-30T05:00:59;100514.25;;;17.36;79.68
17311;BME280;8773;43.300;0.394;2023-09-30T05:03:27;100514.66;;;17.48;78.84
17311;BME280;8773;43.300;0.394;2023-09-30T05:05:56;100517.31;;;17.56;78.32
17311;BME280;8773;43.300;0.394;2023-09-30T05:08:23;100506.16;;;17.59;78.15
17311;BME280;8773;43.300;0.394;2023-09-30T05:10:51;100515.03;;;17.45;78.53
17311;BME280;8773;43.300;0.394;2023-09-30T05:13:18;100518.69;;;17.52;78.26
17311;BME280;8773;43.300;0.394;2023-09-30T05:15:46;100522.34;;;17.59;77.73
17311;BME280;8773;43.300;0.394;2023-09-30T05:18:13;100528.81;;;17.50;77.92
17311;BME280;8773;43.300;0.394;2023-09-30T05:20:41;100530.50;;;17.51;77.61
17311;BME280;8773;43.300;0.394;2023-09-30T05:23:10;100535.25;;;17.49;77.53
17311;BME280;8773;43.300;0.394;2023-09-30T05:25:37;100529.56;;;17.44;77.65
17311;BME280;8773;43.300;0.394;2023-09-30T05:28:05;100526.59;;;17.31;78.06
17311;BME280;8773;43.300;0.394;2023-09-30T05:30:32;100528.69;;;17.21;78.70
17311;BME280;8773;43.300;0.394;2023-09-30T05:33:00;100520.34;;;17.16;78.51
17311;BME280;8773;43.300;0.394;2023-09-30T05:35:28;100529.06;;;17.18;78.43
17311;BME280;8773;43.300;0.394;2023-09-30T05:37:55;100529.44;;;17.15;78.45
17311;BME280;8773;43.300;0.394;2023-09-30T05:40:24;100531.94;;;17.16;78.48
17311;BME280;8773;43.300;0.394;2023-09-30T05:42:52;100538.38;;;16.84;79.50
17311;BME280;8773;43.300;0.394;2023-09-30T05:45:21;100532.56;;;17.03;78.83
17311;BME280;8773;43.300;0.394;2023-09-30T05:47:49;100534.09;;;16.98;79.15
17311;BME280;8773;43.300;0.394;2023-09-30T05:50:19;100538.00;;;16.95;79.43
17311;BME280;8773;43.300;0.394;2023-09-30T05:52:46;100530.38;;;16.99;79.17
17311;BME280;8773;43.300;0.394;2023-09-30T05:55:14;100534.53;;;17.10;79.00
17311;BME280;8773;43.300;0.394;2023-09-30T05:57:42;100526.53;;;17.16;78.53
17311;BME280;8773;43.300;0.394;2023-09-30T06:00:12;100535.13;;;17.20;78.62
17311;BME280;8773;43.300;0.394;2023-09-30T06:02:40;100538.13;;;17.25;78.08
17311;BME280;8773;43.300;0.394;2023-09-30T06:05:08;100544.41;;;17.17;78.11
17311;BME280;8773;43.300;0.394;2023-09-30T06:07:35;100543.47;;;17.33;77.79
17311;BME280;8773;43.300;0.394;2023-09-30T06:10:03;100535.66;;;17.38;77.59
17311;BME280;8773;43.300;0.394;2023-09-30T06:12:30;100530.81;;;17.11;78.15
17311;BME280;8773;43.300;0.394;2023-09-30T06:15:01;100541.66;;;17.25;78.10
17311;BME280;8773;43.300;0.394;2023-09-30T06:17:32;100538.13;;;17.25;77.86
17311;BME280;8773;43.300;0.394;2023-09-30T06:19:59;100547.91;;;17.26;77.80
17311;BME280;8773;43.300;0.394;2023-09-30T06:22:26;100536.38;;;17.32;77.36
17311;BME280;8773;43.300;0.394;2023-09-30T06:24:55;100541.72;;;17.40;77.25
17311;BME280;8773;43.300;0.394;2023-09-30T06:27:23;100538.44;;;17.30;77.12
17311;BME280;8773;43.300;0.394;2023-09-30T06:29:50;100530.88;;;17.25;77.24
17311;BME280;8773;43.300;0.394;2023-09-30T06:32:19;100530.88;;;17.02;77.74
17311;BME280;8773;43.300;0.394;2023-09-30T06:34:46;100538.03;;;16.87;78.32
17311;BME280;8773;43.300;0.394;2023-09-30T06:37:14;100547.94;;;16.95;78.40
17311;BME280;8773;43.300;0.394;2023-09-30T06:39:41;100550.50;;;16.88;78.63
17311;BME280;8773;43.300;0.394;2023-09-30T06:42:08;100559.03;;;17.00;78.38
17311;BME280;8773;43.300;0.394;2023-09-30T06:44:36;100557.97;;;17.09;78.04
17311;BME280;8773;43.300;0.394;2023-09-30T06:47:03;100566.78;;;17.26;77.89
17311;BME280;8773;43.300;0.394;2023-09-30T06:49:33;100562.91;;;17.51;76.79
17311;BME280;8773;43.300;0.394;2023-09-30T06:52:01;100559.91;;;17.46;76.99
17311;BME280;8773;43.300;0.394;2023-09-30T06:54:28;100562.25;;;17.72;76.00
17311;BME280;8773;43.300;0.394;2023-09-30T06:56:56;100567.34;;;17.90;75.55
17311;BME280;8773;43.300;0.394;2023-09-30T06:59:23;100568.16;;;17.90;75.67
17311;BME280;8773;43.300;0.394;2023-09-30T07:01:50;100565.94;;;18.09;75.26
17311;BME280;8773;43.300;0.394;2023-09-30T07:04:18;100563.09;;;18.40;74.49
17311;BME280;8773;43.300;0.394;2023-09-30T07:06:47;100555.44;;;18.58;73.78
17311;BME280;8773;43.300;0.394;2023-09-30T07:09:14;100555.44;;;18.73;73.45
17311;BME280;8773;43.300;0.394;2023-09-30T07:11:41;100552.97;;;18.92;72.93
17311;BME280;8773;43.300;0.394;2023-09-30T07:14:09;100554.91;;;19.34;71.67
17311;BME280;8773;43.300;0.394;2023-09-30T07:16:36;100548.34;;;19.65;70.24
17311;BME280;8773;43.300;0.394;2023-09-30T07:19:04;100542.09;;;20.20;69.15
17311;BME280;8773;43.300;0.394;2023-09-30T07:21:31;100540.50;;;20.32;67.87
17311;BME280;8773;43.300;0.394;2023-09-30T07:24:00;100539.88;;;20.78;67.13
17311;BME280;8773;43.300;0.394;2023-09-30T07:26:27;100539.13;;;20.91;66.91
17311;BME280;8773;43.300;0.394;2023-09-30T07:28:55;100540.47;;;20.74;66.43
17311;BME280;8773;43.300;0.394;2023-09-30T07:31:22;100551.66;;;20.51;66.72
17311;BME280;8773;43.300;0.394;2023-09-30T07:33:50;100549.66;;;20.04;67.44
17311;BME280;8773;43.300;0.394;2023-09-30T07:36:17;100553.38;;;19.96;67.66
17311;BME280;8773;43.300;0.394;2023-09-30T07:38:45;100558.72;;;19.61;68.75
17311;BME280;8773;43.300;0.394;2023-09-30T07:41:13;100560.97;;;19.37;70.17
17311;BME280;8773;43.300;0.394;2023-09-30T07:43:41;100559.63;;;19.68;69.65
17311;BME280;8773;43.300;0.394;2023-09-30T07:46:08;100560.25;;;19.98;69.01
17311;BME280;8773;43.300;0.394;2023-09-30T07:48:35;100561.06;;;20.20;68.09
17311;BME280;8773;43.300;0.394;2023-09-30T07:51:03;100565.59;;;20.41;68.04
17311;BME280;8773;43.300;0.394;2023-09-30T07:53:30;100576.56;;;20.61;67.18
17311;BME280;8773;43.300;0.394;2023-09-30T07:55:57;100572.22;;;20.73;67.03
17311;BME280;8773;43.300;0.394;2023-09-30T07:58:26;100575.72;;;21.02;66.17
17311;BME280;8773;43.300;0.394;2023-09-30T08:00:53;100579.28;;;21.09;65.91
17311;BME280;8773;43.300;0.394;2023-09-30T08:03:21;100580.59;;;21.32;65.61
17311;BME280;8773;43.300;0.394;2023-09-30T08:05:48;100581.47;;;21.46;65.07
17311;BME280;8773;43.300;0.394;2023-09-30T08:08:16;100583.97;;;21.54;64.87
17311;BME280;8773;43.300;0.394;2023-09-30T08:10:43;100587.72;;;21.40;64.62
17311;BME280;8773;43.300;0.394;2023-09-30T08:13:10;100590.59;;;21.25;65.16
17311;BME280;8773;43.300;0.394;2023-09-30T08:15:39;100587.53;;;21.42;64.55
17311;BME280;8773;43.300;0.394;2023-09-30T08:18:06;100583.78;;;21.62;64.28
17311;BME280;8773;43.300;0.394;2023-09-30T08:20:34;100588.94;;;21.24;65.51
17311;BME280;8773;43.300;0.394;2023-09-30T08:23:01;100585.59;;;21.29;65.12
17311;BME280;8773;43.300;0.394;2023-09-30T08:25:29;100590.25;;;21.61;64.52
17311;BME280;8773;43.300;0.394;2023-09-30T08:27:56;100586.81;;;21.20;65.56
17311;BME280;8773;43.300;0.394;2023-09-30T08:30:23;100581.63;;;21.25;65.22
17311;BME280;8773;43.300;0.394;2023-09-30T08:32:55;100586.22;;;20.77;67.14
17311;BME280;8773;43.300;0.394;2023-09-30T08:35:22;100580.41;;;21.34;65.87
17311;BME280;8773;43.300;0.394;2023-09-30T08:37:50;100585.66;;;21.42;65.00
17311;BME280;8773;43.300;0.394;2023-09-30T08:40:20;100583.34;;;21.52;64.96
17311;BME280;8773;43.300;0.394;2023-09-30T08:42:51;100583.97;;;21.41;64.65
17311;BME280;8773;43.300;0.394;2023-09-30T08:45:19;100587.66;;;21.20;64.86
17311;BME280;8773;43.300;0.394;2023-09-30T08:47:46;100575.38;;;21.38;64.94
17311;BME280;8773;43.300;0.394;2023-09-30T08:50:18;100582.09;;;21.61;65.55
17311;BME280;8773;43.300;0.394;2023-09-30T08:52:46;100580.91;;;21.84;65.25
17311;BME280;8773;43.300;0.394;2023-09-30T08:55:17;100581.94;;;21.96;63.66
17311;BME280;8773;43.300;0.394;2023-09-30T08:57:48;100586.13;;;21.65;64.77
17311;BME280;8773;43.300;0.394;2023-09-30T09:00:18;100582.75;;;22.03;64.82
17311;BME280;8773;43.300;0.394;2023-09-30T09:02:46;100589.66;;;22.32;63.94
17311;BME280;8773;43.300;0.394;2023-09-30T09:05:14;100591.75;;;21.97;61.98
17311;BME280;8773;43.300;0.394;2023-09-30T09:07:42;100594.69;;;22.09;62.74
17311;BME280;8773;43.300;0.394;2023-09-30T09:10:11;100592.16;;;22.47;63.37
17311;BME280;8773;43.300;0.394;2023-09-30T09:12:39;100591.59;;;22.83;62.77
17311;BME280;8773;43.300;0.394;2023-09-30T09:15:08;100595.09;;;22.39;60.60
17311;BME280;8773;43.300;0.394;2023-09-30T09:17:43;100596.09;;;22.64;61.61
17311;BME280;8773;43.300;0.394;2023-09-30T09:20:17;100591.53;;;23.09;61.67
17311;BME280;8773;43.300;0.394;2023-09-30T09:22:47;100584.00;;;23.11;61.81
17311;BME280;8773;43.300;0.394;2023-09-30T09:25:15;100573.56;;;23.33;60.73
17311;BME280;8773;43.300;0.394;2023-09-30T09:27:42;100566.56;;;23.19;61.37
17311;BME280;8773;43.300;0.394;2023-09-30T09:30:17;100573.22;;;23.23;60.85
17311;BME280;8773;43.300;0.394;2023-09-30T09:32:58;100571.47;;;23.35;59.85
17311;BME280;8773;43.300;0.394;2023-09-30T09:35:26;100570.91;;;23.58;59.77
17311;BME280;8773;43.300;0.394;2023-09-30T09:37:57;100564.22;;;23.54;60.14
17311;BME280;8773;43.300;0.394;2023-09-30T09:40:26;100569.09;;;23.77;61.01
17311;BME280;8773;43.300;0.394;2023-09-30T09:42:54;100569.28;;;24.07;60.31
17311;BME280;8773;43.300;0.394;2023-09-30T09:45:23;100563.09;;;23.93;60.59
17311;BME280;8773;43.300;0.394;2023-09-30T09:47:52;100560.94;;;24.02;60.63
17311;BME280;8773;43.300;0.394;2023-09-30T09:50:20;100563.50;;;23.97;60.77
17311;BME280;8773;43.300;0.394;2023-09-30T09:52:48;100569.63;;;23.92;59.99
17311;BME280;8773;43.300;0.394;2023-09-30T09:55:20;100562.38;;;24.04;59.51
17311;BME280;8773;43.300;0.394;2023-09-30T09:57:48;100558.88;;;24.15;59.19
17311;BME280;8773;43.300;0.394;2023-09-30T10:00:17;100554.25;;;24.41;59.57
17311;BME280;8773;43.300;0.394;2023-09-30T10:02:45;100549.00;;;24.39;58.83
17311;BME280;8773;43.300;0.394;2023-09-30T10:05:14;100556.81;;;24.36;59.10
17311;BME280;8773;43.300;0.394;2023-09-30T10:07:45;100550.31;;;24.73;58.11
17311;BME280;8773;43.300;0.394;2023-09-30T10:10:16;100558.66;;;24.60;58.03
17311;BME280;8773;43.300;0.394;2023-09-30T10:12:46;100555.47;;;24.45;59.14
17311;BME280;8773;43.300;0.394;2023-09-30T10:15:41;100555.16;;;24.71;57.55
17311;BME280;8773;43.300;0.394;2023-09-30T10:18:09;100543.63;;;24.87;56.71
17311;BME280;8773;43.300;0.394;2023-09-30T10:20:43;100553.03;;;24.73;56.96
17311;BME280;8773;43.300;0.394;2023-09-30T10:23:21;100542.59;;;25.00;56.45
17311;BME280;8773;43.300;0.394;2023-09-30T10:25:51;100539.63;;;25.20;56.03
17311;BME280;8773;43.300;0.394;2023-09-30T10:28:39;100540.69;;;25.19;55.98
17311;BME280;8773;43.300;0.394;2023-09-30T10:31:11;100533.25;;;25.38;55.07
17311;BME280;8773;43.300;0.394;2023-09-30T10:36:44;100538.72;;;25.08;53.89
17311;BME280;8773;43.300;0.394;2023-09-30T10:39:13;100538.09;;;25.24;54.48
17311;BME280;8773;43.300;0.394;2023-09-30T10:41:50;100532.78;;;25.52;53.29
17311;BME280;8773;43.300;0.394;2023-09-30T10:44:34;100528.78;;;25.67;52.01
17311;BME280;8773;43.300;0.394;2023-09-30T10:47:35;100532.09;;;25.57;53.89
17311;BME280;8773;43.300;0.394;2023-09-30T10:50:02;100529.69;;;25.49;52.95
17311;BME280;8773;43.300;0.394;2023-09-30T10:52:30;100529.38;;;25.57;52.88
17311;BME280;8773;43.300;0.394;2023-09-30T10:55:02;100517.34;;;25.58;52.81
17311;BME280;8773;43.300;0.394;2023-09-30T10:57:30;100521.81;;;25.94;52.51
17311;BME280;8773;43.300;0.394;2023-09-30T11:00:11;100513.00;;;26.04;51.07
17311;BME280;8773;43.300;0.394;2023-09-30T11:02:49;100517.41;;;25.93;52.31
17311;BME280;8773;43.300;0.394;2023-09-30T11:05:17;100502.66;;;25.71;51.72
17311;BME280;8773;43.300;0.394;2023-09-30T11:07:47;100507.06;;;25.72;52.14
17311;BME280;8773;43.300;0.394;2023-09-30T11:10:16;100504.06;;;25.97;51.06
17311;BME280;8773;43.300;0.394;2023-09-30T11:12:54;100500.94;;;26.28;52.00
17311;BME280;8773;43.300;0.394;2023-09-30T11:15:24;100503.84;;;26.10;50.94
17311;BME280;8773;43.300;0.394;2023-09-30T11:17:52;100506.44;;;26.40;51.14
17311;BME280;8773;43.300;0.394;2023-09-30T11:20:19;100497.25;;;26.46;51.30
17311;BME280;8773;43.300;0.394;2023-09-30T11:22:47;100491.13;;;26.67;49.67
17311;BME280;8773;43.300;0.394;2023-09-30T11:25:17;100489.63;;;26.48;49.63
17311;BME280;8773;43.300;0.394;2023-09-30T11:27:45;100493.34;;;26.70;50.93
17311;BME280;8773;43.300;0.394;2023-09-30T11:30:13;100488.66;;;26.94;48.85
17311;BME280;8773;43.300;0.394;2023-09-30T11:32:42;100481.78;;;26.80;49.30
17311;BME280;8773;43.300;0.394;2023-09-30T11:35:10;100476.41;;;26.56;47.79
17311;BME280;8773;43.300;0.394;2023-09-30T11:37:48;100478.31;;;26.84;47.86
17311;BME280;8773;43.300;0.394;2023-09-30T11:40:16;100478.78;;;26.81;48.45
17311;BME280;8773;43.300;0.394;2023-09-30T11:43:07;100484.13;;;27.00;48.26
17311;BME280;8773;43.300;0.394;2023-09-30T11:45:34;100476.00;;;27.05;48.53
17311;BME280;8773;43.300;0.394;2023-09-30T11:48:16;100471.19;;;26.72;48.02
17311;BME280;8773;43.300;0.394;2023-09-30T11:50:47;100469.91;;;27.03;47.93
17311;BME280;8773;43.300;0.394;2023-09-30T11:53:16;100464.78;;;27.23;47.35
17311;BME280;8773;43.300;0.394;2023-09-30T11:55:43;100459.66;;;27.43;47.26
17311;BME280;8773;43.300;0.394;2023-09-30T11:58:11;100453.28;;;26.93;49.26
17311;BME280;8773;43.300;0.394;2023-09-30T12:00:41;100464.28;;;27.26;48.66
17311;BME280;8773;43.300;0.394;2023-09-30T12:03:09;100454.22;;;27.15;48.57
17311;BME280;8773;43.300;0.394;2023-09-30T12:05:37;100450.09;;;27.12;48.30
17311;BME280;8773;43.300;0.394;2023-09-30T12:08:04;100453.81;;;27.23;48.95
17311;BME280;8773;43.300;0.394;2023-09-30T12:10:32;100450.00;;;27.58;48.94
17311;BME280;8773;43.300;0.394;2023-09-30T12:13:00;100449.59;;;27.32;48.00
17311;BME280;8773;43.300;0.394;2023-09-30T12:15:27;100450.53;;;26.93;47.86
17311;BME280;8773;43.300;0.394;2023-09-30T12:17:54;100446.38;;;27.52;49.07
17311;BME280;8773;43.300;0.394;2023-09-30T12:20:23;100437.84;;;27.87;47.77
17311;BME280;8773;43.300;0.394;2023-09-30T12:22:51;100437.69;;;27.77;47.79
17311;BME280;8773;43.300;0.394;2023-09-30T12:25:18;100427.69;;;27.87;46.81
17311;BME280;8773;43.300;0.394;2023-09-30T12:27:45;100431.53;;;27.70;46.23
17311;BME280;8773;43.300;0.394;2023-09-30T12:30:13;100430.47;;;28.09;47.97
17311;BME280;8773;43.300;0.394;2023-09-30T12:32:40;100430.78;;;27.74;46.98
17311;BME280;8773;43.300;0.394;2023-09-30T12:35:08;100422.72;;;27.68;46.75
17311;BME280;8773;43.300;0.394;2023-09-30T12:37:37;100423.41;;;27.58;46.55
17311;BME280;8773;43.300;0.394;2023-09-30T12:40:05;100421.06;;;27.67;47.34
17311;BME280;8773;43.300;0.394;2023-09-30T12:42:33;100420.97;;;28.00;48.22
17311;BME280;8773;43.300;0.394;2023-09-30T12:45:01;100412.34;;;28.30;46.84
17311;BME280;8773;43.300;0.394;2023-09-30T12:47:28;100416.06;;;28.41;44.60
17311;BME280;8773;43.300;0.394;2023-09-30T12:49:55;100417.38;;;28.16;46.04
17311;BME280;8773;43.300;0.394;2023-09-30T12:52:23;100419.50;;;28.09;44.72
17311;BME280;8773;43.300;0.394;2023-09-30T12:54:52;100413.91;;;28.04;45.04
17311;BME280;8773;43.300;0.394;2023-09-30T12:57:19;100419.78;;;27.91;45.04
17311;BME280;8773;43.300;0.394;2023-09-30T12:59:46;100408.97;;;28.06;46.08
17311;BME280;8773;43.300;0.394;2023-09-30T13:02:14;100400.91;;;27.95;45.93
17311;BME280;8773;43.300;0.394;2023-09-30T13:04:41;100404.75;;;28.15;43.83
17311;BME280;8773;43.300;0.394;2023-09-30T13:07:09;100402.91;;;28.04;44.90
17311;BME280;8773;43.300;0.394;2023-09-30T13:09:37;100396.75;;;28.14;44.34
17311;BME280;8773;43.300;0.394;2023-09-30T13:12:06;100401.50;;;28.45;44.08